createdAt,value
2018-04-09T00:00:47.328Z,11.10
2018-04-09T00:03:15.604Z,11.06
2018-04-09T00:05:43.877Z,10.81
2018-04-09T00:08:12.141Z,10.64
2018-04-09T00:10:40.420Z,10.64
2018-04-09T00:13:08.684Z,10.70
2018-04-09T00:15:37.717Z,10.63
2018-04-09T00:18:06.001Z,10.64
2018-04-09T00:20:34.274Z,10.71
2018-04-09T00:23:02.537Z,10.79
2018-04-09T00:25:30.815Z,10.75
2018-04-09T00:27:59.093Z,10.85
2018-04-09T00:30:27.368Z,10.92
2018-04-09T00:32:55.632Z,10.98
2018-04-09T00:35:23.909Z,11.04
2018-04-09T00:37:52.176Z,11.06
2018-04-09T00:40:20.462Z,10.99
2018-04-09T00:42:48.742Z,10.84
2018-04-09T00:45:17.016Z,10.76
2018-04-09T00:47:45.280Z,10.36
2018-04-09T00:50:13.572Z,10.10
2018-04-09T00:52:41.852Z,10.13
2018-04-09T00:55:10.136Z,10.16
2018-04-09T00:57:38.483Z,10.20
2018-04-09T01:00:06.749Z,10.22
2018-04-09T01:02:35.804Z,10.26
2018-04-09T01:05:04.090Z,10.29
2018-04-09T01:07:32.353Z,10.32
2018-04-09T01:10:00.627Z,10.20
2018-04-09T01:12:28.902Z,10.18
2018-04-09T01:14:57.167Z,10.23
2018-04-09T01:17:25.434Z,10.24
2018-04-09T01:19:53.688Z,10.11
2018-04-09T01:22:21.981Z,10.01
2018-04-09T01:24:50.267Z,10.01
2018-04-09T01:27:18.543Z,9.88
2018-04-09T01:29:46.804Z,10.00
2018-04-09T01:32:15.058Z,9.93
2018-04-09T01:34:43.350Z,9.95
2018-04-09T01:37:11.636Z,9.83
2018-04-09T01:39:39.885Z,9.80
2018-04-09T01:42:08.976Z,9.84
2018-04-09T01:44:38.002Z,9.81
2018-04-09T01:47:06.257Z,9.82
2018-04-09T01:49:34.537Z,9.87
2018-04-09T01:52:02.793Z,9.89
2018-04-09T01:54:31.838Z,9.81
2018-04-09T01:57:00.124Z,9.78
2018-04-09T01:59:28.376Z,9.76
2018-04-09T02:01:56.628Z,9.56
2018-04-09T02:04:25.661Z,9.50
2018-04-09T02:06:53.919Z,9.49
2018-04-09T02:09:22.180Z,9.54
2018-04-09T02:11:50.452Z,9.56
2018-04-09T02:14:18.708Z,9.60
2018-04-09T02:16:47.728Z,9.62
2018-04-09T02:19:16.021Z,9.60
2018-04-09T02:21:44.297Z,9.59
2018-04-09T02:24:12.564Z,9.51
2018-04-09T02:26:40.823Z,9.38
2018-04-09T02:29:09.084Z,9.16
2018-04-09T02:31:38.121Z,9.10
2018-04-09T02:34:06.371Z,9.03
2018-04-09T02:36:34.622Z,8.99
2018-04-09T02:39:02.905Z,8.87
2018-04-09T02:41:31.936Z,8.89
2018-04-09T02:44:00.192Z,8.45
2018-04-09T02:46:28.507Z,8.16
2018-04-09T02:48:56.771Z,8.35
2018-04-09T02:51:25.019Z,8.30
2018-04-09T02:53:53.304Z,8.24
2018-04-09T02:56:21.547Z,8.04
2018-04-09T02:58:49.816Z,8.21
2018-04-09T03:01:18.085Z,8.39
2018-04-09T03:03:46.345Z,8.49
2018-04-09T03:06:14.593Z,8.37
2018-04-09T03:08:42.890Z,8.26
2018-04-09T03:11:11.149Z,8.39
2018-04-09T03:13:39.404Z,8.43
2018-04-09T03:16:07.677Z,8.53
2018-04-09T03:18:36.733Z,8.59
2018-04-09T03:21:04.986Z,8.68
2018-04-09T03:23:33.283Z,8.68
2018-04-09T03:26:01.536Z,8.69
2018-04-09T03:28:29.819Z,8.74
2018-04-09T03:30:58.089Z,8.77
2018-04-09T03:33:26.424Z,8.80
2018-04-09T03:35:55.451Z,8.79
2018-04-09T03:38:23.734Z,8.69
2018-04-09T03:40:51.996Z,8.67
2018-04-09T03:43:20.254Z,8.66
2018-04-09T03:45:49.299Z,8.59
2018-04-09T03:48:17.584Z,8.31
2018-04-09T03:50:45.849Z,8.06
2018-04-09T03:53:14.104Z,8.15
2018-04-09T03:55:42.361Z,8.31
2018-04-09T03:58:10.650Z,8.36
2018-04-09T04:00:38.901Z,8.33
2018-04-09T04:03:07.925Z,8.25
2018-04-09T04:05:36.195Z,8.11
2018-04-09T04:08:04.449Z,8.16
2018-04-09T04:10:33.476Z,8.04
2018-04-09T04:13:01.762Z,7.92
2018-04-09T04:15:47.992Z,8.02
2018-04-09T04:18:34.105Z,8.13
2018-04-09T04:24:12.685Z,8.07
2018-04-09T04:26:40.941Z,8.09
2018-04-09T04:29:09.201Z,8.13
2018-04-09T04:31:38.233Z,8.06
2018-04-09T04:34:06.502Z,8.19
2018-04-09T04:36:34.752Z,8.31
2018-04-09T04:39:03.026Z,8.35
2018-04-09T04:41:31.296Z,8.27
2018-04-09T04:44:00.345Z,8.15
2018-04-09T04:46:28.619Z,7.93
2018-04-09T04:48:56.889Z,7.99
2018-04-09T04:51:25.163Z,8.00
2018-04-09T04:53:53.432Z,7.83
2018-04-09T04:56:21.693Z,7.92
2018-04-09T04:58:49.941Z,7.96
2018-04-09T05:01:18.982Z,7.95
2018-04-09T05:03:47.244Z,8.01
2018-04-09T05:06:15.494Z,8.06
2018-04-09T05:08:43.777Z,8.15
2018-04-09T05:11:12.069Z,8.14
2018-04-09T05:13:40.321Z,8.21
2018-04-09T05:16:09.356Z,8.34
2018-04-09T05:18:37.618Z,8.38
2018-04-09T05:21:05.873Z,8.49
2018-04-09T05:23:34.165Z,8.54
2018-04-09T05:26:02.416Z,8.52
2018-04-09T05:28:31.456Z,8.48
2018-04-09T05:30:59.728Z,8.52
2018-04-09T05:33:27.984Z,8.50
2018-04-09T05:35:56.240Z,8.46
2018-04-09T05:38:25.289Z,8.58
2018-04-09T05:40:53.541Z,8.64
2018-04-09T05:43:21.811Z,8.71
2018-04-09T05:45:50.084Z,8.70
2018-04-09T05:48:18.357Z,8.75
2018-04-09T05:50:46.609Z,8.93
2018-04-09T05:53:15.648Z,9.12
2018-04-09T05:55:43.910Z,9.29
2018-04-09T05:58:12.177Z,9.39
2018-04-09T06:00:40.460Z,9.35
2018-04-09T06:03:08.723Z,9.59
2018-04-09T06:05:37.019Z,9.74
2018-04-09T06:08:05.272Z,9.92
2018-04-09T06:10:33.540Z,10.04
2018-04-09T06:13:02.569Z,10.11
2018-04-09T06:15:30.916Z,10.30
2018-04-09T06:17:59.256Z,10.39
2018-04-09T06:20:28.369Z,10.53
2018-04-09T06:22:57.475Z,10.57
2018-04-09T06:25:25.813Z,10.79
2018-04-09T06:27:54.104Z,11.00
2018-04-09T06:30:22.476Z,11.11
2018-04-09T06:32:50.765Z,11.40
2018-04-09T06:35:19.022Z,11.56
2018-04-09T06:37:47.307Z,11.54
2018-04-09T06:40:15.616Z,11.43
2018-04-09T06:42:43.874Z,11.37
2018-04-09T06:45:12.148Z,11.47
2018-04-09T06:47:40.545Z,11.49
2018-04-09T06:50:08.767Z,11.71
2018-04-09T06:52:37.047Z,11.79
2018-04-09T06:55:05.310Z,11.89
2018-04-09T06:57:33.601Z,11.89
2018-04-09T07:00:01.895Z,11.91
2018-04-09T07:02:30.153Z,11.98
2018-04-09T07:04:58.423Z,11.98
2018-04-09T07:07:26.752Z,12.21
2018-04-09T07:09:55.788Z,12.04
2018-04-09T07:12:24.049Z,12.30
2018-04-09T07:14:52.337Z,12.49
2018-04-09T07:17:20.605Z,12.46
2018-04-09T07:19:48.865Z,12.46
2018-04-09T07:22:17.142Z,12.64
2018-04-09T07:24:45.410Z,12.67
2018-04-09T07:27:14.429Z,12.76
2018-04-09T07:29:42.717Z,12.94
2018-04-09T07:32:10.982Z,13.08
2018-04-09T07:34:39.244Z,13.24
2018-04-09T07:37:07.538Z,13.12
2018-04-09T07:39:35.801Z,13.24
2018-04-09T07:42:04.086Z,13.23
2018-04-09T07:44:32.370Z,13.15
2018-04-09T07:47:00.630Z,13.20
2018-04-09T07:49:28.936Z,13.50
2018-04-09T07:51:57.235Z,13.71
2018-04-09T07:54:25.511Z,13.58
2018-04-09T07:56:53.769Z,13.60
2018-04-09T07:59:22.048Z,13.63
2018-04-09T08:01:50.317Z,13.77
2018-04-09T08:04:18.592Z,14.08
2018-04-09T08:06:46.873Z,14.42
2018-04-09T08:09:15.136Z,14.68
2018-04-09T08:11:44.166Z,14.83
2018-04-09T08:14:13.957Z,15.19
2018-04-09T08:16:42.220Z,15.56
2018-04-09T08:19:10.492Z,15.78
2018-04-09T08:21:39.582Z,16.05
2018-04-09T08:24:07.849Z,16.03
2018-04-09T08:26:36.109Z,16.38
2018-04-09T08:29:04.519Z,16.66
2018-04-09T08:31:32.784Z,16.88
2018-04-09T08:34:01.082Z,17.12
2018-04-09T08:36:29.360Z,17.41
2018-04-09T08:38:57.706Z,17.55
2018-04-09T08:41:25.982Z,17.65
2018-04-09T08:43:54.267Z,17.54
2018-04-09T08:46:22.522Z,17.58
2018-04-09T08:48:50.800Z,17.60
2018-04-09T08:51:19.076Z,17.85
2018-04-09T08:53:47.334Z,17.84
2018-04-09T08:56:16.461Z,18.04
2018-04-09T08:58:44.727Z,18.30
2018-04-09T09:01:13.020Z,18.52
2018-04-09T09:03:41.300Z,18.73
2018-04-09T09:06:09.556Z,18.88
2018-04-09T09:08:37.824Z,18.94
2018-04-09T09:11:06.860Z,19.22
2018-04-09T09:13:35.141Z,19.47
2018-04-09T09:16:03.412Z,19.57
2018-04-09T09:18:31.693Z,19.61
2018-04-09T09:20:59.949Z,19.70
2018-04-09T09:23:28.270Z,19.84
2018-04-09T09:25:56.562Z,19.85
2018-04-09T09:28:25.608Z,19.91
2018-04-09T09:30:53.874Z,19.90
2018-04-09T09:33:22.149Z,20.13
2018-04-09T09:35:50.411Z,20.32
2018-04-09T09:38:18.704Z,20.52
2018-04-09T09:40:46.976Z,20.81
2018-04-09T09:43:15.353Z,20.96
2018-04-09T09:45:43.612Z,21.20
2018-04-09T09:48:11.896Z,21.58
2018-04-09T09:50:40.153Z,21.64
2018-04-09T09:53:09.623Z,21.85
2018-04-09T09:55:38.693Z,22.03
2018-04-09T09:58:06.968Z,22.24
2018-04-09T10:00:40.675Z,22.49
2018-04-09T10:03:08.944Z,22.61
2018-04-09T10:05:37.216Z,22.53
2018-04-09T10:08:07.363Z,22.60
2018-04-09T10:10:35.640Z,22.51
2018-04-09T10:13:03.924Z,22.42
2018-04-09T10:15:32.185Z,22.47
2018-04-09T10:18:00.466Z,22.50
2018-04-09T10:20:28.784Z,22.44
2018-04-09T10:22:57.828Z,22.58
2018-04-09T10:25:26.114Z,22.58
2018-04-09T10:27:54.380Z,22.59
2018-04-09T10:30:22.642Z,22.45
2018-04-09T10:32:50.927Z,22.25
2018-04-09T10:35:19.193Z,22.27
2018-04-09T10:37:47.457Z,22.42
2018-04-09T10:40:15.748Z,22.63
2018-04-09T10:42:44.008Z,22.81
2018-04-09T10:45:12.265Z,22.85
2018-04-09T10:47:40.555Z,22.89
2018-04-09T10:50:08.816Z,22.85
2018-04-09T10:52:37.852Z,23.01
2018-04-09T10:55:06.175Z,23.33
2018-04-09T10:57:35.196Z,23.78
2018-04-09T11:00:03.472Z,24.04
2018-04-09T11:02:31.740Z,24.53
2018-04-09T11:05:00.030Z,25.01
2018-04-09T11:07:28.293Z,25.32
2018-04-09T11:09:56.582Z,25.41
2018-04-09T11:12:24.841Z,25.41
2018-04-09T11:14:53.957Z,25.57
2018-04-09T11:17:22.295Z,25.75
2018-04-09T11:19:51.420Z,26.05
2018-04-09T11:22:19.783Z,26.08
2018-04-09T11:24:48.136Z,26.09
2018-04-09T11:27:16.466Z,25.46
2018-04-09T11:29:44.821Z,25.12
2018-04-09T11:32:13.189Z,25.16
2018-04-09T11:34:42.291Z,25.00
2018-04-09T11:37:10.652Z,25.17
2018-04-09T11:39:39.758Z,25.38
2018-04-09T11:42:08.844Z,25.42
2018-04-09T11:44:37.196Z,25.68
2018-04-09T11:47:05.515Z,25.66
2018-04-09T11:49:33.848Z,25.77
2018-04-09T11:52:02.196Z,25.92
2018-04-09T11:54:30.478Z,25.93
2018-04-09T11:56:58.738Z,25.86
2018-04-09T11:59:27.050Z,25.55
2018-04-09T12:01:55.308Z,25.40
2018-04-09T12:04:23.573Z,25.48
2018-04-09T12:06:51.847Z,25.69
2018-04-09T12:09:20.123Z,25.94
2018-04-09T12:11:48.377Z,26.16
2018-04-09T12:14:17.447Z,26.11
2018-04-09T12:16:45.707Z,26.25
2018-04-09T12:19:13.965Z,25.60
2018-04-09T12:21:42.240Z,26.09
2018-04-09T12:24:10.530Z,26.35
2018-04-09T12:26:38.797Z,26.44
2018-04-09T12:29:07.082Z,26.32
2018-04-09T12:31:35.337Z,26.46
2018-04-09T12:34:03.597Z,26.62
2018-04-09T12:36:31.883Z,26.80
2018-04-09T12:39:00.140Z,27.05
2018-04-09T12:41:29.169Z,26.67
2018-04-09T12:43:57.454Z,26.25
2018-04-09T12:46:25.712Z,26.52
2018-04-09T12:48:53.978Z,26.61
2018-04-09T12:51:22.259Z,26.84
2018-04-09T12:53:50.556Z,26.49
2018-04-09T12:56:18.831Z,26.56
2018-04-09T12:58:47.095Z,26.72
2018-04-09T13:01:15.364Z,26.57
2018-04-09T13:03:43.643Z,26.27
2018-04-09T13:06:11.907Z,26.32
2018-04-09T13:08:40.170Z,26.54
2018-04-09T13:11:08.454Z,26.41
2018-04-09T13:13:36.722Z,26.76
2018-04-09T13:16:05.745Z,27.07
2018-04-09T13:18:34.027Z,27.07
2018-04-09T13:21:02.312Z,26.37
2018-04-09T13:23:30.575Z,26.93
2018-04-09T13:25:58.838Z,26.49
2018-04-09T13:28:27.126Z,27.09
2018-04-09T13:30:55.398Z,26.67
2018-04-09T13:33:23.654Z,26.97
2018-04-09T13:35:51.946Z,26.99
2018-04-09T13:38:20.222Z,26.64
2018-04-09T13:40:48.484Z,26.75
2018-04-09T13:43:16.799Z,26.52
2018-04-09T13:45:45.053Z,27.00
2018-04-09T13:48:13.334Z,27.05
2018-04-09T13:50:41.605Z,27.18
2018-04-09T13:53:09.874Z,27.39
2018-04-09T13:55:38.151Z,27.81
2018-04-09T13:58:06.433Z,28.28
2018-04-09T14:00:34.743Z,27.80
2018-04-09T14:03:03.003Z,27.96
2018-04-09T14:05:31.275Z,27.66
2018-04-09T14:07:59.575Z,28.85
2018-04-09T14:10:27.835Z,29.10
2018-04-09T14:12:56.098Z,28.85
2018-04-09T14:15:24.382Z,28.78
2018-04-09T14:17:52.643Z,28.12
2018-04-09T14:20:20.918Z,28.16
2018-04-09T14:22:49.195Z,27.66
2018-04-09T14:25:17.458Z,27.57
2018-04-09T14:27:45.740Z,27.03
2018-04-09T14:30:14.021Z,26.61
2018-04-09T14:32:42.299Z,26.82
2018-04-09T14:35:10.564Z,26.89
2018-04-09T14:37:38.845Z,27.14
2018-04-09T14:40:07.116Z,27.06
2018-04-09T14:42:36.175Z,27.30
2018-04-09T14:45:04.461Z,27.48
2018-04-09T14:47:32.738Z,27.03
2018-04-09T14:50:01.775Z,26.70
2018-04-09T14:52:30.041Z,26.69
2018-04-09T14:54:58.325Z,26.62
2018-04-09T14:57:26.605Z,26.90
2018-04-09T14:59:54.878Z,26.69
2018-04-09T15:02:23.253Z,26.73
2018-04-09T15:04:51.541Z,27.20
2018-04-09T15:07:19.802Z,27.38
2018-04-09T15:09:48.106Z,27.62
2018-04-09T15:12:16.368Z,28.55
2018-04-09T15:14:44.637Z,28.93
2018-04-09T15:17:12.936Z,29.22
2018-04-09T15:19:41.215Z,28.89
2018-04-09T15:22:09.498Z,28.80
2018-04-09T15:24:37.781Z,28.78
2018-04-09T15:27:06.025Z,27.45
2018-04-09T15:29:34.315Z,27.35
2018-04-09T15:32:02.578Z,27.37
2018-04-09T15:34:30.857Z,27.18
2018-04-09T15:36:59.120Z,27.14
2018-04-09T15:39:27.390Z,26.91
2018-04-09T15:41:55.683Z,26.66
2018-04-09T15:44:23.947Z,26.27
2018-04-09T15:46:52.234Z,25.99
2018-04-09T15:49:20.510Z,25.98
2018-04-09T15:51:48.810Z,25.60
2018-04-09T15:54:17.097Z,25.54
2018-04-09T15:56:46.159Z,25.15
2018-04-09T15:59:14.434Z,25.25
2018-04-09T16:01:42.708Z,24.99
2018-04-09T16:04:10.982Z,24.90
2018-04-09T16:06:39.268Z,24.74
2018-04-09T16:09:07.573Z,24.38
2018-04-09T16:11:36.631Z,24.56
2018-04-09T16:14:04.915Z,24.42
2018-04-09T16:16:33.167Z,24.36
2018-04-09T16:19:01.469Z,24.31
2018-04-09T16:21:29.738Z,24.12
2018-04-09T16:23:58.010Z,24.01
2018-04-09T16:26:26.296Z,24.02
2018-04-09T16:28:54.632Z,23.96
2018-04-09T16:31:23.667Z,24.01
2018-04-09T16:33:51.962Z,24.04
2018-04-09T16:36:20.239Z,24.03
2018-04-09T16:38:49.334Z,23.98
2018-04-09T16:41:17.611Z,23.88
2018-04-09T16:43:45.874Z,23.74
2018-04-09T16:46:14.151Z,23.57
2018-04-09T16:48:42.431Z,23.30
2018-04-09T16:51:10.706Z,23.21
2018-04-09T16:53:38.987Z,23.21
2018-04-09T16:56:07.259Z,23.23
2018-04-09T16:58:35.531Z,23.26
2018-04-09T17:01:03.836Z,23.33
2018-04-09T17:03:32.109Z,23.38
2018-04-09T17:06:00.383Z,23.24
2018-04-09T17:08:28.642Z,23.29
2018-04-09T17:10:56.919Z,23.14
2018-04-09T17:13:25.206Z,23.04
2018-04-09T17:15:53.479Z,22.90
2018-04-09T17:18:21.747Z,22.81
2018-04-09T17:20:50.029Z,22.73
2018-04-09T17:23:18.290Z,22.68
2018-04-09T17:25:46.559Z,22.62
2018-04-09T17:28:14.886Z,22.55
2018-04-09T17:30:43.175Z,22.51
2018-04-09T17:33:12.949Z,22.45
2018-04-09T17:35:41.251Z,22.36
2018-04-09T17:38:09.510Z,22.21
2018-04-09T17:40:37.795Z,22.02
2018-04-09T17:43:06.070Z,21.84
2018-04-09T17:45:34.576Z,21.71
2018-04-09T17:48:02.929Z,21.59
2018-04-09T17:50:32.003Z,21.48
2018-04-09T17:53:00.350Z,21.31
2018-04-09T17:55:28.770Z,21.19
2018-04-09T17:57:57.077Z,20.98
2018-04-09T18:00:26.127Z,20.88
2018-04-09T18:02:54.615Z,20.75
2018-04-09T18:05:22.971Z,20.68
2018-04-09T18:07:51.499Z,20.59
2018-04-09T18:10:20.735Z,20.55
2018-04-09T18:12:49.411Z,20.43
2018-04-09T18:15:17.905Z,20.48
2018-04-09T18:17:46.673Z,20.47
2018-04-09T18:20:15.317Z,20.42
2018-04-09T18:22:45.289Z,20.45
2018-04-09T18:25:14.671Z,20.46
2018-04-09T18:27:43.972Z,20.45
2018-04-09T18:30:13.248Z,20.43
2018-04-09T18:32:42.600Z,20.41
2018-04-09T18:35:13.425Z,20.37
2018-04-09T18:37:43.563Z,20.33
2018-04-09T18:40:13.651Z,20.27
2018-04-09T18:42:43.022Z,20.22
2018-04-09T18:45:12.582Z,20.14
2018-04-09T18:47:42.042Z,20.10
2018-04-09T18:50:11.616Z,20.04
2018-04-09T18:52:41.053Z,20.02
2018-04-09T18:55:11.248Z,19.93
2018-04-09T18:57:42.456Z,19.90
2018-04-09T19:00:11.968Z,19.86
2018-04-09T19:02:42.409Z,19.78
2018-04-09T19:05:11.803Z,19.69
2018-04-09T19:07:41.241Z,19.64
2018-04-09T19:10:10.828Z,19.62
2018-04-09T19:12:40.454Z,19.61
2018-04-09T19:15:09.935Z,19.51
2018-04-09T19:17:39.461Z,19.50
2018-04-09T19:20:09.395Z,19.49
2018-04-09T19:22:39.020Z,19.48
2018-04-09T19:25:08.557Z,19.44
2018-04-09T19:27:38.179Z,19.40
2018-04-09T19:30:07.741Z,19.29
2018-04-09T19:32:37.307Z,19.24
2018-04-09T19:35:09.636Z,19.23
2018-04-09T19:46:30.721Z,18.94
2018-04-09T19:48:59.067Z,18.84
2018-04-09T19:51:29.253Z,18.67
2018-04-09T19:53:58.593Z,18.57
2018-04-09T19:56:28.871Z,18.44
2018-04-09T19:58:58.315Z,18.33
2018-04-09T20:01:28.143Z,18.11
2018-04-09T20:03:57.944Z,17.80
2018-04-09T20:06:27.857Z,17.65
2018-04-09T20:08:59.643Z,17.70
2018-04-09T20:11:29.557Z,17.72
2018-04-09T20:13:59.287Z,17.59
2018-04-09T20:16:29.181Z,17.51
2018-04-09T20:18:58.972Z,17.29
2018-04-09T20:21:28.907Z,17.33
2018-04-09T20:23:58.720Z,17.37
2018-04-09T20:26:29.308Z,17.11
2018-04-09T20:28:59.265Z,16.95
2018-04-09T20:31:29.053Z,16.95
2018-04-09T20:33:58.787Z,17.06
2018-04-09T20:36:28.703Z,17.19
2018-04-09T20:38:58.492Z,17.25
2018-04-09T20:41:28.310Z,17.29
2018-04-09T20:43:57.999Z,17.30
2018-04-09T20:46:28.319Z,17.26
2018-04-09T20:48:57.886Z,17.25
2018-04-09T20:51:27.207Z,17.23
2018-04-09T20:53:56.461Z,17.13
2018-04-09T20:56:25.099Z,17.07
2018-04-09T20:58:54.243Z,16.69
2018-04-09T21:01:22.543Z,16.58
2018-04-09T21:03:50.815Z,16.62
2018-04-09T21:06:19.134Z,16.62
2018-04-09T21:08:47.400Z,16.60
2018-04-09T21:11:15.707Z,16.57
2018-04-09T21:13:43.979Z,16.56
2018-04-09T21:16:13.072Z,16.30
2018-04-09T21:18:42.146Z,16.31
2018-04-09T21:21:10.411Z,16.22
2018-04-09T21:23:38.717Z,16.19
2018-04-09T21:26:07.759Z,16.21
2018-04-09T21:28:36.049Z,16.14
2018-04-09T21:31:04.351Z,15.94
2018-04-09T21:33:32.662Z,15.91
2018-04-09T21:36:00.959Z,15.94
2018-04-09T21:38:29.238Z,15.93
2018-04-09T21:40:57.512Z,15.87
2018-04-09T21:43:25.794Z,15.90
2018-04-09T21:45:54.078Z,15.85
2018-04-09T21:48:22.367Z,15.83
2018-04-09T21:50:50.635Z,15.78
2018-04-09T21:53:18.972Z,15.73
2018-04-09T21:55:47.235Z,15.61
2018-04-09T21:58:16.295Z,15.57
2018-04-09T22:00:44.575Z,15.51
2018-04-09T22:03:12.891Z,15.45
2018-04-09T22:05:42.006Z,15.28
2018-04-09T22:08:10.408Z,14.85
2018-04-09T22:10:38.809Z,14.67
2018-04-09T22:13:07.209Z,14.67
2018-04-09T22:18:04.037Z,14.22
2018-04-09T22:20:32.426Z,14.34
2018-04-09T22:23:00.869Z,14.37
2018-04-09T22:25:29.236Z,14.33
2018-04-09T22:27:57.615Z,14.36
2018-04-09T22:30:25.984Z,14.40
2018-04-09T22:32:54.410Z,14.25
2018-04-09T22:35:22.768Z,14.09
2018-04-09T22:37:51.142Z,14.07
2018-04-09T22:40:19.525Z,14.12
2018-04-09T22:42:47.891Z,14.16
2018-04-09T22:45:16.269Z,14.19
2018-04-09T22:47:44.627Z,14.16
2018-04-09T22:50:13.034Z,14.05
2018-04-09T22:52:41.415Z,13.74
2018-04-09T22:55:09.872Z,13.65
2018-04-09T22:57:38.261Z,13.62
2018-04-09T23:00:06.687Z,13.64
2018-04-09T23:02:35.793Z,13.72
2018-04-09T23:05:04.945Z,13.77
2018-04-09T23:07:33.357Z,13.76
2018-04-09T23:10:01.729Z,13.72
2018-04-09T23:12:30.083Z,13.63
2018-04-09T23:14:59.344Z,13.45
2018-04-09T23:17:27.799Z,13.32
2018-04-09T23:19:56.166Z,13.32
2018-04-09T23:22:35.275Z,13.34
2018-04-09T23:25:03.726Z,13.32
2018-04-09T23:27:32.104Z,13.32
2018-04-09T23:30:00.528Z,13.32
2018-04-09T23:32:28.963Z,13.33
2018-04-09T23:34:57.407Z,13.21
2018-04-09T23:37:25.773Z,13.23
2018-04-09T23:39:54.895Z,13.15
2018-04-09T23:42:24.023Z,13.22
2018-04-09T23:44:52.310Z,13.18
2018-04-09T23:47:20.591Z,13.19
2018-04-09T23:49:48.866Z,12.74
2018-04-09T23:52:17.163Z,12.88
2018-04-09T23:54:45.438Z,12.93
2018-04-09T23:57:13.721Z,12.89
2018-04-09T23:59:41.991Z,12.67
